createdAt,value
2018-07-25T06:21:56.542Z,943.7
2018-07-25T06:24:02.417Z,943.7
2018-07-25T06:26:30.561Z,943.6
2018-07-25T06:28:36.575Z,943.7
2018-07-25T06:30:42.456Z,943.7
2018-07-25T06:32:48.321Z,943.7
2018-07-25T06:34:54.660Z,943.7
2018-07-25T06:37:03.374Z,943.7
2018-07-25T06:39:09.512Z,943.6
2018-07-25T06:41:15.387Z,943.7
2018-07-25T06:43:21.533Z,943.7
2018-07-25T06:45:28.031Z,943.8
2018-07-25T06:47:34.315Z,943.7
2018-07-25T06:49:40.260Z,943.7
2018-07-25T06:51:46.351Z,943.7
2018-07-25T06:53:52.234Z,943.7
2018-07-25T06:55:58.304Z,943.8
2018-07-25T06:58:04.294Z,943.7
2018-07-25T07:00:10.249Z,943.8
2018-07-25T07:02:16.218Z,943.8
2018-07-25T07:04:22.166Z,943.8
2018-07-25T07:06:28.329Z,943.8
2018-07-25T07:08:36.799Z,943.8
2018-07-25T07:10:42.664Z,943.9
2018-07-25T07:12:48.692Z,943.8
2018-07-25T07:14:54.583Z,943.8
2018-07-25T07:17:00.547Z,943.8
2018-07-25T07:19:06.457Z,943.8
2018-07-25T07:21:12.452Z,943.8
2018-07-25T07:23:18.336Z,943.8
2018-07-25T07:25:24.318Z,943.8
2018-07-25T07:27:30.321Z,943.8
2018-07-25T07:29:36.371Z,943.9
2018-07-25T07:31:42.258Z,943.9
2018-07-25T07:33:48.172Z,943.9
2018-07-25T07:35:54.083Z,943.9
2018-07-25T07:38:00.183Z,943.8
2018-07-25T07:40:06.143Z,943.8
2018-07-25T07:42:12.186Z,943.8
2018-07-25T07:44:18.489Z,943.8
2018-07-25T07:46:24.560Z,943.8
2018-07-25T07:48:30.611Z,943.8
2018-07-25T07:50:36.609Z,943.8
2018-07-25T07:52:42.613Z,943.8
2018-07-25T07:54:48.626Z,943.8
2018-07-25T07:56:54.518Z,943.8
2018-07-25T07:59:00.594Z,943.9
2018-07-25T08:01:06.522Z,943.8
2018-07-25T08:03:12.438Z,943.8
2018-07-25T08:05:19.517Z,943.7
2018-07-25T08:07:28.582Z,943.9
2018-07-25T08:09:34.997Z,943.8
2018-07-25T08:11:40.902Z,943.8
2018-07-25T08:13:46.898Z,943.9
2018-07-25T08:15:52.963Z,943.9
2018-07-25T08:17:59.078Z,943.9
2018-07-25T08:20:05.755Z,944
2018-07-25T08:22:11.747Z,944
2018-07-25T08:24:17.733Z,944
2018-07-25T08:26:23.627Z,944
2018-07-25T08:28:30.923Z,944
2018-07-25T08:30:36.878Z,943.9
2018-07-25T08:31:57.629Z,943.9
2018-07-25T08:34:03.575Z,943.9
2018-07-25T08:36:09.478Z,943.9
2018-07-25T08:38:15.452Z,943.9
2018-07-25T08:40:21.302Z,944
2018-07-25T08:42:27.229Z,944
2018-07-25T08:44:33.546Z,943.9
2018-07-25T08:46:39.527Z,943.9
2018-07-25T08:48:45.605Z,943.9
2018-07-25T08:50:51.512Z,944
2018-07-25T08:52:57.608Z,944
2018-07-25T08:55:03.520Z,944
2018-07-25T08:57:09.396Z,944
2018-07-25T08:59:15.415Z,944
2018-07-25T09:01:21.471Z,944
2018-07-25T09:03:27.372Z,944
2018-07-25T09:05:33.245Z,944
2018-07-25T09:07:39.617Z,944
2018-07-25T09:09:46.387Z,944.1
2018-07-25T09:11:52.332Z,944
2018-07-25T09:13:58.374Z,944
2018-07-25T09:16:04.248Z,944
2018-07-25T09:18:10.245Z,944.1
2018-07-25T09:20:16.223Z,944.1
2018-07-25T09:22:22.095Z,944.1
2018-07-25T09:24:28.128Z,944.1
2018-07-25T09:26:34.080Z,944.1
2018-07-25T09:28:40.175Z,944.2
2018-07-25T09:30:46.308Z,944.2
2018-07-25T09:32:53.116Z,944.2
2018-07-25T09:34:59.476Z,944.2
2018-07-25T09:37:05.544Z,944.2
2018-07-25T09:39:11.599Z,944.2
2018-07-25T09:41:17.844Z,944.2
2018-07-25T09:43:23.900Z,944.2
2018-07-25T09:45:30.059Z,944.2
2018-07-25T09:47:38.571Z,944.2
2018-07-25T09:49:44.723Z,944.2
2018-07-25T09:51:50.891Z,944.2
2018-07-25T09:53:56.960Z,944.1
2018-07-25T09:56:04.842Z,944
2018-07-25T09:58:11.459Z,944.1
2018-07-25T10:00:17.578Z,944
2018-07-25T10:02:23.522Z,944
2018-07-25T10:04:29.581Z,944
2018-07-25T10:06:35.831Z,944
2018-07-25T10:08:43.122Z,944
2018-07-25T10:10:50.566Z,943.9
2018-07-25T10:12:56.658Z,944
2018-07-25T10:15:03.108Z,943.9
2018-07-25T10:17:10.002Z,943.8
2018-07-25T10:19:16.059Z,943.8
2018-07-25T10:21:22.724Z,943.8
2018-07-25T10:23:31.557Z,943.9
2018-07-25T10:25:38.672Z,943.8
2018-07-25T10:27:44.750Z,943.9
2018-07-25T10:29:50.836Z,943.8
2018-07-25T10:31:56.951Z,943.8
2018-07-25T10:34:02.996Z,943.8
2018-07-25T10:36:12.181Z,943.8
2018-07-25T10:38:18.392Z,943.8
2018-07-25T10:40:25.223Z,943.7
2018-07-25T10:42:31.403Z,943.8
2018-07-25T10:44:37.878Z,943.8
2018-07-25T10:46:43.946Z,943.9
2018-07-25T10:48:54.187Z,943.8
2018-07-25T10:51:00.714Z,943.9
2018-07-25T10:53:06.762Z,943.9
2018-07-25T10:55:12.810Z,943.9
2018-07-25T10:57:21.238Z,943.9
2018-07-25T10:59:28.310Z,943.8
2018-07-25T11:01:36.531Z,943.8
2018-07-25T12:48:09.526Z,943.5
2018-07-25T12:50:15.538Z,943.6
2018-07-25T12:52:22.406Z,943.5
2018-07-25T12:54:28.468Z,943.5
2018-07-25T12:56:34.772Z,943.5
2018-07-25T12:58:40.981Z,943.4
2018-07-25T13:00:47.039Z,943.4
